createdAt,value
2018-09-20T15:50:43.127Z,5772.00
2018-09-20T15:52:26.203Z,6060.00
2018-09-20T15:53:26.223Z,5872.00
2018-09-20T15:54:26.188Z,5876.00
2018-09-20T15:55:26.173Z,5752.00
2018-09-20T15:56:26.162Z,5616.00
2018-09-20T15:57:26.147Z,5536.00
2018-09-20T15:58:26.133Z,5504.00
2018-09-20T15:59:26.161Z,5488.00
2018-09-20T16:00:26.123Z,5452.00
2018-09-20T16:01:26.097Z,5436.00
2018-09-20T16:02:26.096Z,5436.00
2018-09-20T16:03:26.075Z,5452.00
2018-09-20T16:04:26.066Z,5212.00
2018-09-20T16:05:26.075Z,5456.00
2018-09-20T16:06:26.050Z,5428.00
2018-09-20T16:07:26.030Z,5388.00
2018-09-20T16:08:26.018Z,5384.00
2018-09-20T16:09:26.015Z,5252.00
2018-09-20T16:10:26.032Z,4772.00
2018-09-20T16:11:25.993Z,5340.00
2018-09-20T16:12:25.983Z,5032.00
2018-09-20T16:13:25.962Z,5000.00
2018-09-20T16:14:26.076Z,4940.00
2018-09-20T16:15:25.946Z,4828.00
2018-09-20T16:16:25.956Z,4736.00
2018-09-20T16:17:25.919Z,4680.00
2018-09-20T16:18:25.905Z,4592.00
2018-09-20T16:19:25.903Z,4476.00
2018-09-20T16:20:25.883Z,4352.00
2018-09-20T16:21:25.910Z,4236.00
2018-09-20T16:22:25.865Z,4120.00
2018-09-20T16:23:25.901Z,4016.00
2018-09-20T16:24:25.846Z,3960.00
2018-09-20T16:25:25.832Z,3884.00
2018-09-20T16:26:25.816Z,3792.00
2018-09-20T16:27:25.831Z,3716.00
2018-09-20T16:28:25.795Z,3668.00
2018-09-20T16:29:25.781Z,3596.00
2018-09-20T16:30:25.777Z,3536.00
2018-09-20T16:31:25.763Z,3476.00
2018-09-20T16:32:25.781Z,3420.00
2018-09-20T16:33:25.735Z,3340.00
2018-09-20T16:34:25.731Z,3232.00
2018-09-20T16:35:25.711Z,3152.00
2018-09-20T16:36:25.702Z,3100.00
2018-09-20T16:37:25.693Z,3080.00
2018-09-20T16:38:25.772Z,3056.00
2018-09-20T16:39:25.671Z,3032.00
2018-09-20T16:40:25.659Z,2984.00
2018-09-20T16:41:25.650Z,2940.00
2018-09-20T16:42:25.629Z,2908.00
2018-09-20T16:43:25.657Z,2868.00
2018-09-20T16:44:25.616Z,2832.00
2018-09-20T16:45:25.595Z,2792.00
2018-09-20T16:46:25.592Z,2760.00
2018-09-20T16:47:25.573Z,2736.00
2018-09-20T16:48:25.561Z,2704.00
2018-09-20T16:49:25.578Z,2672.00
2018-09-20T16:50:25.535Z,2632.00
2018-09-20T16:51:25.532Z,2576.00
2018-09-20T16:52:25.519Z,2520.00
2018-09-20T16:53:25.571Z,2460.00
2018-09-20T16:54:25.523Z,2400.00
2018-09-20T16:55:25.479Z,2356.00
2018-09-20T16:56:25.469Z,2304.00
2018-09-20T16:57:25.459Z,2244.00
2018-09-20T16:58:25.445Z,2184.00
2018-09-20T16:59:25.436Z,2124.00
2018-09-20T17:00:25.455Z,2076.00
2018-09-20T17:01:25.410Z,2028.00
2018-09-20T17:02:25.403Z,1964.00
2018-09-20T17:03:25.388Z,1908.00
2018-09-20T17:04:25.376Z,1860.00
2018-09-20T17:05:25.370Z,1816.00
2018-09-20T17:06:25.375Z,1772.00
2018-09-20T17:07:25.344Z,1720.00
2018-09-20T17:08:25.340Z,1672.00
2018-09-20T17:09:25.315Z,1624.00
2018-09-20T17:10:25.313Z,1568.00
2018-09-20T17:11:25.320Z,1516.00
2018-09-20T17:12:25.279Z,1460.00
2018-09-20T17:13:25.278Z,1404.00
2018-09-20T17:14:25.291Z,1336.00
2018-09-20T17:15:25.252Z,1264.00
2018-09-20T17:16:25.289Z,1176.00
2018-09-20T17:17:25.257Z,1080.00
2018-09-20T17:18:25.219Z,988.00
2018-09-20T17:19:25.200Z,896.00
2018-09-20T17:20:25.193Z,816.00
2018-09-20T17:21:25.179Z,740.00
2018-09-20T17:22:25.164Z,676.00
2018-09-20T17:23:25.184Z,616.00
2018-09-20T17:24:25.149Z,568.00
2018-09-20T17:25:25.196Z,520.00
2018-09-20T17:26:25.123Z,476.00
2018-09-20T17:27:25.116Z,436.00
2018-09-20T17:28:25.123Z,396.00
2018-09-20T17:29:25.085Z,360.00
2018-09-20T17:30:25.084Z,332.00
2018-09-20T17:31:25.068Z,304.00
2018-09-20T17:32:25.059Z,280.00
2018-09-20T17:33:25.074Z,252.00
2018-09-20T17:34:25.035Z,232.00
2018-09-20T17:35:25.029Z,208.00
2018-09-20T17:36:25.014Z,192.00
2018-09-20T17:37:25.003Z,172.00
2018-09-20T17:38:24.994Z,152.00
2018-09-20T17:39:25.004Z,140.00
2018-09-20T17:40:24.966Z,124.00
2018-09-20T17:41:24.959Z,112.00
2018-09-20T17:42:24.948Z,96.00
2018-09-20T17:43:24.934Z,84.00
2018-09-20T17:44:24.923Z,76.00
2018-09-20T17:45:24.945Z,64.00
2018-09-20T17:46:24.894Z,56.00
2018-09-20T17:47:24.940Z,48.00
2018-09-20T17:48:24.875Z,44.00
2018-09-20T17:49:24.867Z,36.00
2018-09-20T17:50:24.858Z,32.00
2018-09-20T17:51:24.859Z,28.00
2018-09-20T17:52:24.827Z,20.00
2018-09-20T17:53:24.826Z,16.00
2018-09-20T17:54:24.811Z,12.00
2018-09-20T17:55:24.802Z,12.00
2018-09-20T17:56:24.811Z,12.00
2018-09-20T17:57:24.781Z,8.00
2018-09-20T17:58:24.763Z,8.00
2018-09-20T17:59:24.749Z,8.00
2018-09-20T18:00:24.743Z,4.00
2018-09-20T18:01:24.722Z,4.00
2018-09-20T18:02:24.738Z,4.00
2018-09-20T18:03:24.707Z,4.00
2018-09-20T18:04:24.688Z,4.00
2018-09-20T18:05:24.685Z,0.00
2018-09-20T18:06:24.670Z,0.00
2018-09-20T18:07:24.684Z,0.00
2018-09-20T18:08:24.643Z,0.00
2018-09-20T18:09:24.643Z,0.00
2018-09-20T18:10:24.630Z,0.00
2018-09-20T18:11:24.624Z,0.00
2018-09-20T18:12:24.604Z,0.00
2018-09-20T18:13:24.623Z,0.00
2018-09-20T18:14:24.585Z,0.00
2018-09-20T18:15:24.578Z,0.00
2018-09-20T18:16:24.564Z,0.00
2018-09-20T18:17:24.550Z,0.00
2018-09-20T18:18:24.630Z,0.00
2018-09-20T18:19:24.523Z,0.00
2018-09-20T18:20:24.521Z,0.00
2018-09-20T18:21:24.502Z,0.00
2018-09-20T18:22:24.496Z,0.00
2018-09-20T18:23:24.507Z,0.00
2018-09-20T18:24:24.472Z,0.00
2018-09-20T18:25:24.455Z,0.00
2018-09-20T18:26:24.443Z,0.00
2018-09-20T18:27:24.437Z,0.00
2018-09-20T18:28:24.425Z,0.00
2018-09-20T18:29:24.440Z,0.00
2018-09-20T18:30:24.390Z,0.00
2018-09-20T18:31:24.377Z,0.00
2018-09-20T18:32:24.365Z,0.00
2018-09-20T18:33:24.351Z,0.00
2018-09-20T18:34:24.448Z,0.00
2018-09-20T18:35:24.360Z,0.00
2018-09-20T18:36:24.316Z,0.00
2018-09-20T18:37:24.314Z,0.00
2018-09-20T18:38:24.293Z,0.00
2018-09-20T18:39:24.292Z,0.00
2018-09-20T18:40:24.284Z,0.00
2018-09-20T18:41:24.291Z,0.00
2018-09-20T18:42:24.266Z,0.00
2018-09-20T18:43:24.235Z,0.00
2018-09-20T18:44:24.234Z,0.00
2018-09-20T18:45:24.210Z,0.00
2018-09-20T18:46:24.203Z,0.00
2018-09-20T18:47:24.219Z,0.00
2018-09-20T18:48:24.224Z,0.00
2018-09-20T18:49:24.167Z,0.00
2018-09-20T18:50:24.159Z,0.00
2018-09-20T18:51:24.143Z,0.00
2018-09-20T18:52:24.135Z,0.00
2018-09-20T18:53:24.143Z,0.00
2018-09-20T18:54:24.106Z,0.00
2018-09-20T18:55:24.130Z,0.00
2018-09-20T18:56:24.092Z,0.00
2018-09-20T18:57:24.071Z,0.00
2018-09-20T18:58:24.092Z,0.00
2018-09-20T18:59:24.055Z,0.00
2018-09-20T19:00:24.040Z,0.00
2018-09-20T19:01:24.025Z,0.00
2018-09-20T19:02:24.023Z,0.00
2018-09-20T19:03:24.008Z,0.00
2018-09-20T19:04:24.012Z,0.00
2018-09-20T19:05:23.989Z,0.00
2018-09-20T19:06:23.969Z,0.00
2018-09-20T19:07:23.982Z,0.00
2018-09-20T19:08:23.953Z,0.00
2018-09-20T19:09:23.961Z,0.00
2018-09-20T19:10:23.931Z,0.00
2018-09-20T19:11:23.910Z,0.00
2018-09-20T19:12:23.905Z,0.00
2018-09-20T19:13:23.892Z,0.00
2018-09-20T19:14:23.882Z,0.00
2018-09-20T19:15:23.889Z,0.00
2018-09-20T19:16:23.856Z,0.00
2018-09-20T19:17:23.842Z,0.00
2018-09-20T19:18:23.831Z,0.00
2018-09-20T19:19:23.827Z,0.00
2018-09-20T19:20:23.839Z,0.00
2018-09-20T19:21:23.869Z,0.00
2018-09-20T19:22:23.787Z,0.00
2018-09-20T19:23:23.771Z,0.00
2018-09-20T19:24:23.762Z,0.00
2018-09-20T19:25:23.758Z,0.00
2018-09-20T19:26:23.776Z,0.00
2018-09-20T19:27:23.734Z,0.00
2018-09-20T19:28:23.719Z,0.00
2018-09-20T19:29:23.712Z,0.00
2018-09-20T19:30:23.695Z,0.00
2018-09-20T19:31:23.687Z,0.00
2018-09-20T19:32:23.703Z,0.00
2018-09-20T19:33:23.664Z,0.00
2018-09-20T19:34:23.650Z,0.00
2018-09-20T19:35:23.635Z,0.00
2018-09-20T19:36:23.629Z,0.00
2018-09-20T19:37:23.621Z,0.00
2018-09-20T19:38:23.629Z,0.00
2018-09-20T19:39:23.591Z,0.00
2018-09-20T19:40:23.585Z,0.00
2018-09-20T19:41:23.567Z,0.00
2018-09-20T19:42:23.561Z,0.00
2018-09-20T19:43:23.577Z,0.00
2018-09-20T19:44:23.570Z,0.00
2018-09-20T19:45:23.524Z,0.00
2018-09-20T19:46:23.528Z,0.00
2018-09-20T19:47:23.502Z,0.00
2018-09-20T19:48:23.491Z,0.00
2018-09-20T19:49:23.511Z,0.00
2018-09-20T19:50:23.467Z,0.00
2018-09-20T19:51:23.456Z,0.00
2018-09-20T19:52:23.453Z,0.00
2018-09-20T19:53:23.442Z,0.00
2018-09-20T19:54:23.427Z,0.00
2018-09-20T19:55:23.434Z,0.00
2018-09-20T19:56:23.409Z,0.00
2018-09-20T19:57:23.392Z,0.00
2018-09-20T19:58:23.373Z,0.00
2018-09-20T19:59:23.371Z,0.00
2018-09-20T20:00:23.435Z,0.00
